Time;durP1;ratioP1;P1;durP2;ratioP2;P2;SDS_P1;SDS_P2;PMS_P1;PMS_P2;Temp;Humidity;BMP_temperature;BMP_pressure;BME280_temperature;BME280_humidity;BME280_pressure;Samples;Min_cycle;Max_cycle;Signal;HPM_P1;HPM_P2
2023/04/26 00:01:28;;;;;;;;;;;;;;;21.58;31.52;96912.19;4975895;28;943;-75
2023/04/26 00:03:55;;;;;;;;;;;;;;;21.87;31.12;96905.25;4943529;28;904;-75
2023/04/26 00:06:20;;;;;;;;;;;;;;;21.63;31.16;96903.06;4975876;28;945;-75
2023/04/26 00:08:46;;;;;;;;;;;;;;;21.78;30.83;96906.84;4937138;29;1242;-75
2023/04/26 00:11:11;;;;;;;;;;;;;;;21.77;31.20;96902.44;4937433;29;2007;-75
2023/04/26 00:13:37;;;;;;;;;;;;;;;21.81;30.89;96903.06;4937224;29;986;-75
2023/04/26 00:16:03;;;;;;;;;;;;;;;21.80;30.88;96904.31;4935457;29;978;-75
2023/04/26 00:18:30;;;;;;;;;;;;;;;22.18;31.01;96908.72;4924142;29;983;-75
2023/04/26 00:20:56;;;;;;;;;;;;;;;22.46;30.94;96906.56;4942206;28;1233;-75
2023/04/26 00:23:21;;;;;;;;;;;;;;;22.57;31.05;96908.91;4959621;28;1059;-75
2023/04/26 00:25:47;;;;;;;;;;;;;;;22.26;31.53;96914.81;4960258;29;972;-76
2023/04/26 00:28:12;;;;;;;;;;;;;;;22.18;31.19;96911.53;4959992;28;1069;-75
2023/04/26 00:30:41;;;;;;;;;;;;;;;21.71;31.61;96904.31;4960130;28;1985;-75
2023/04/26 00:33:08;;;;;;;;;;;;;;;21.61;31.59;96902.75;4959801;28;991;-75
2023/04/26 00:35:33;;;;;;;;;;;;;;;21.69;31.12;96901.16;4979470;28;924;-75
2023/04/26 00:37:59;;;;;;;;;;;;;;;22.00;30.76;96903.81;4963184;28;1006;-75
2023/04/26 00:40:24;;;;;;;;;;;;;;;22.00;30.93;96900.19;4991148;28;1236;-75
2023/04/26 00:42:55;;;;;;;;;;;;;;;21.85;31.15;96897.22;4982310;28;1105;-75
2023/04/26 00:45:21;;;;;;;;;;;;;;;21.85;30.85;96900.84;4982332;28;1144;-75
2023/04/26 00:47:46;;;;;;;;;;;;;;;21.64;31.20;96903.84;4998537;28;984;-75
2023/04/26 00:50:12;;;;;;;;;;;;;;;21.67;31.32;96898.03;4998701;28;1973;-75
2023/04/26 00:52:37;;;;;;;;;;;;;;;21.77;31.24;96896.78;4998559;28;912;-75
2023/04/26 00:55:03;;;;;;;;;;;;;;;21.77;31.15;96902.44;4998919;28;962;-75
2023/04/26 00:57:28;;;;;;;;;;;;;;;21.59;31.24;96896.75;4998180;28;968;-75
2023/04/26 00:59:54;;;;;;;;;;;;;;;22.14;31.15;96896.75;4998296;28;990;-75
2023/04/26 01:02:20;;;;;;;;;;;;;;;22.49;30.95;96887.84;4982040;28;1142;-75
2023/04/26 01:04:47;;;;;;;;;;;;;;;22.52;30.91;96898.22;4981847;28;1086;-75
2023/04/26 01:07:12;;;;;;;;;;;;;;;22.34;30.50;96894.19;4981900;28;1139;-75
2023/04/26 01:09:38;;;;;;;;;;;;;;;21.90;31.27;96893.75;4981668;28;1910;-75
2023/04/26 01:12:03;;;;;;;;;;;;;;;21.91;30.76;96886.03;4965992;28;1228;-75
2023/04/26 01:14:30;;;;;;;;;;;;;;;21.54;31.47;96892.50;4994547;28;1044;-75
2023/04/26 01:16:55;;;;;;;;;;;;;;;21.61;31.34;96896.31;4998915;28;942;-75
2023/04/26 01:19:22;;;;;;;;;;;;;;;21.88;30.96;96895.50;5015099;28;936;-75
2023/04/26 01:21:47;;;;;;;;;;;;;;;21.60;31.05;96892.66;4999177;28;1139;-75
2023/04/26 01:24:13;;;;;;;;;;;;;;;21.80;30.92;96890.16;4979412;28;1274;-75
2023/04/26 01:26:44;;;;;;;;;;;;;;;21.83;30.82;96894.88;4979721;28;1230;-75
2023/04/26 01:29:13;;;;;;;;;;;;;;;21.87;30.70;96882.59;4963415;28;1103;-75
2023/04/26 01:31:39;;;;;;;;;;;;;;;21.70;31.06;96882.91;4979051;28;1078;-75
2023/04/26 01:34:04;;;;;;;;;;;;;;;21.65;31.12;96877.09;4995543;28;1079;-75
2023/04/26 01:36:31;;;;;;;;;;;;;;;22.15;31.23;96877.69;4980306;28;974;-75
2023/04/26 01:38:57;;;;;;;;;;;;;;;22.49;30.93;96882.19;4995178;28;987;-75
2023/04/26 01:41:23;;;;;;;;;;;;;;;22.55;30.80;96875.38;4979328;28;895;-75
2023/04/26 01:43:48;;;;;;;;;;;;;;;22.32;30.60;96868.34;4995146;28;904;-75
2023/04/26 01:46:14;;;;;;;;;;;;;;;22.04;30.91;96870.44;4979114;28;1104;-75
2023/04/26 01:48:40;;;;;;;;;;;;;;;21.89;30.72;96869.53;4995400;28;1111;-74
2023/04/26 01:51:05;;;;;;;;;;;;;;;21.94;30.76;96868.91;4979136;28;1911;-75
2023/04/26 01:53:32;;;;;;;;;;;;;;;21.62;31.28;96876.00;4980007;28;950;-75
2023/04/26 01:56:04;;;;;;;;;;;;;;;21.73;30.99;96872.72;4978950;28;948;-75
2023/04/26 01:58:30;;;;;;;;;;;;;;;21.82;30.74;96870.66;4963349;28;1136;-75
2023/04/26 02:00:56;;;;;;;;;;;;;;;21.88;30.60;96870.03;4979125;28;1174;-75
2023/04/26 02:03:21;;;;;;;;;;;;;;;21.62;31.37;96861.88;4978251;28;1037;-75
2023/04/26 02:05:49;;;;;;;;;;;;;;;21.68;31.11;96868.47;4962920;28;1344;-74
2023/04/26 02:08:14;;;;;;;;;;;;;;;21.45;31.64;96864.22;4978318;28;909;-74
2023/04/26 02:10:40;;;;;;;;;;;;;;;21.66;31.14;96867.34;4978603;28;1902;-75
2023/04/26 02:13:07;;;;;;;;;;;;;;;21.64;31.46;96865.00;4978340;28;1098;-75
2023/04/26 02:15:32;;;;;;;;;;;;;;;22.25;31.32;96867.91;4962418;28;910;-75
2023/04/26 02:17:58;;;;;;;;;;;;;;;22.52;30.92;96864.97;4979492;28;954;-75
2023/04/26 02:20:23;;;;;;;;;;;;;;;22.50;30.54;96856.19;4978340;28;1236;-75
2023/04/26 02:22:49;;;;;;;;;;;;;;;22.04;30.77;96858.34;4964189;28;1146;-75
2023/04/26 02:25:15;;;;;;;;;;;;;;;22.05;30.63;96871.22;4985161;28;1120;-74
2023/04/26 02:27:41;;;;;;;;;;;;;;;21.90;30.46;96870.31;5018388;28;924;-75
2023/04/26 02:30:06;;;;;;;;;;;;;;;21.79;30.52;96871.59;4985029;28;1906;-75
2023/04/26 02:32:33;;;;;;;;;;;;;;;21.69;31.07;96872.84;5001126;28;1367;-75
2023/04/26 02:34:58;;;;;;;;;;;;;;;21.46;31.35;96870.66;5001122;28;1177;-75
2023/04/26 02:37:24;;;;;;;;;;;;;;;21.69;30.77;96870.03;4985271;28;1167;-75
2023/04/26 02:39:50;;;;;;;;;;;;;;;21.59;31.05;96868.47;5018445;28;893;-75
2023/04/26 02:42:16;;;;;;;;;;;;;;;21.83;30.78;96860.88;5001163;28;983;-75
2023/04/26 02:44:41;;;;;;;;;;;;;;;21.91;30.75;96866.22;4984093;28;972;-75
2023/04/26 02:47:07;;;;;;;;;;;;;;;21.82;30.82;96862.16;4998522;28;1132;-75
2023/04/26 02:49:33;;;;;;;;;;;;;;;21.47;31.57;96860.91;5000839;28;1972;-74
2023/04/26 02:51:58;;;;;;;;;;;;;;;22.11;30.76;96860.84;4996325;28;1059;-75
2023/04/26 02:54:24;;;;;;;;;;;;;;;22.54;30.51;96867.34;4996158;28;1189;-75
2023/04/26 02:56:50;;;;;;;;;;;;;;;22.69;30.35;96868.22;4979986;28;1213;-75
2023/04/26 02:59:16;;;;;;;;;;;;;;;22.48;30.67;96860.75;4979561;28;992;-75
2023/04/26 03:01:42;;;;;;;;;;;;;;;22.26;30.75;96864.59;4947768;28;1225;-75
2023/04/26 03:04:08;;;;;;;;;;;;;;;22.16;30.44;96865.88;4979724;28;1372;-75
2023/04/26 03:06:35;;;;;;;;;;;;;;;21.96;30.84;96857.88;4963892;28;1582;-75
2023/04/26 03:09:00;;;;;;;;;;;;;;;21.92;30.63;96856.47;4996283;28;1262;-75
2023/04/26 03:11:26;;;;;;;;;;;;;;;21.75;31.05;96859.63;4979974;28;1927;-76
2023/04/26 03:13:52;;;;;;;;;;;;;;;21.83;31.00;96855.22;4963690;28;1570;-76
2023/04/26 03:16:22;;;;;;;;;;;;;;;21.83;31.12;96863.72;4996379;28;1218;-76
2023/04/26 03:18:47;;;;;;;;;;;;;;;21.81;31.00;96856.94;4979714;28;1250;-76
2023/04/26 03:21:13;;;;;;;;;;;;;;;21.64;31.28;96859.34;4976651;28;1084;-76
2023/04/26 03:23:39;;;;;;;;;;;;;;;21.69;31.10;96855.88;4942934;28;1228;-76
2023/04/26 03:26:04;;;;;;;;;;;;;;;21.69;31.21;96855.09;4980116;28;1362;-76
2023/04/26 03:28:30;;;;;;;;;;;;;;;21.83;31.06;96858.06;4979387;28;1021;-76
2023/04/26 03:30:56;;;;;;;;;;;;;;;21.71;31.16;96853.38;4979446;28;1910;-76
2023/04/26 03:33:21;;;;;;;;;;;;;;;21.61;31.22;96859.50;4995323;28;1391;-76
2023/04/26 03:35:47;;;;;;;;;;;;;;;21.79;31.08;96860.25;4995594;28;1012;-76
2023/04/26 03:38:12;;;;;;;;;;;;;;;21.51;31.46;96856.69;4979496;28;925;-76
2023/04/26 03:40:38;;;;;;;;;;;;;;;21.67;31.32;96863.28;4979325;28;1117;-76
2023/04/26 03:43:04;;;;;;;;;;;;;;;22.29;31.02;96855.16;4995163;28;1056;-76
2023/04/26 03:45:29;;;;;;;;;;;;;;;22.56;30.65;96856.31;4979121;28;1161;-76
2023/04/26 03:47:55;;;;;;;;;;;;;;;22.45;31.11;96858.88;4995421;28;1054;-76
2023/04/26 03:50:21;;;;;;;;;;;;;;;22.43;30.57;96855.72;4963259;28;1911;-76
2023/04/26 03:52:46;;;;;;;;;;;;;;;22.21;30.87;96862.41;4967223;28;1154;-75
2023/04/26 03:55:12;;;;;;;;;;;;;;;21.97;31.03;96858.69;4999525;28;1134;-76
2023/04/26 03:57:38;;;;;;;;;;;;;;;22.00;30.98;96852.03;4999444;28;1402;-76
2023/04/26 04:00:10;;;;;;;;;;;;;;;21.79;31.23;96848.94;4999579;28;1129;-76
2023/04/26 04:02:40;;;;;;;;;;;;;;;21.69;31.34;96855.88;5015590;28;966;-76
2023/04/26 04:05:07;;;;;;;;;;;;;;;21.63;31.53;96863.44;4999541;28;1282;-76
2023/04/26 04:07:33;;;;;;;;;;;;;;;21.55;31.57;96867.81;4999726;28;1067;-76
2023/04/26 04:09:59;;;;;;;;;;;;;;;21.72;31.45;96871.91;5015376;28;1906;-76
2023/04/26 04:12:25;;;;;;;;;;;;;;;21.67;31.22;96871.78;4999653;28;1127;-76
2023/04/26 04:14:51;;;;;;;;;;;;;;;21.72;31.50;96871.91;4999481;28;1305;-76
2023/04/26 04:17:20;;;;;;;;;;;;;;;22.36;31.41;96877.47;4951070;28;1191;-76
2023/04/26 04:19:45;;;;;;;;;;;;;;;22.60;31.26;96882.44;4966781;28;1139;-76
2023/04/26 04:22:11;;;;;;;;;;;;;;;22.36;31.21;96880.31;4983313;28;1080;-76
2023/04/26 04:24:38;;;;;;;;;;;;;;;21.88;31.75;96872.84;4982531;28;1404;-76
2023/04/26 04:27:03;;;;;;;;;;;;;;;21.89;31.46;96880.06;4983168;28;1112;-76
2023/04/26 04:29:30;;;;;;;;;;;;;;;21.64;31.66;96879.16;4983183;28;1977;-76
2023/04/26 04:31:56;;;;;;;;;;;;;;;21.73;31.52;96879.16;4983508;28;1325;-76
2023/04/26 04:34:25;;;;;;;;;;;;;;;21.43;32.17;96888.59;4982883;28;1152;-76
2023/04/26 04:36:51;;;;;;;;;;;;;;;21.78;31.61;96889.06;4983376;28;1560;-76
2023/04/26 04:39:16;;;;;;;;;;;;;;;21.72;31.64;96886.06;4974911;28;1549;-76
2023/04/26 04:41:47;;;;;;;;;;;;;;;21.69;31.49;96884.19;4975196;28;1216;-76
2023/04/26 04:44:14;;;;;;;;;;;;;;;21.92;31.10;96884.81;4975075;28;1148;-76
2023/04/26 04:46:40;;;;;;;;;;;;;;;21.61;31.65;96888.59;4936456;29;1179;-76
2023/04/26 04:49:08;;;;;;;;;;;;;;;21.88;31.16;96884.19;4936497;29;1280;-76
2023/04/26 04:51:33;;;;;;;;;;;;;;;22.04;31.07;96886.66;4936493;29;1914;-76
2023/04/26 04:54:07;;;;;;;;;;;;;;;21.57;31.64;96887.97;4936681;29;1383;-76
2023/04/26 04:56:33;;;;;;;;;;;;;;;21.58;31.87;96895.19;4936497;29;1131;-77
2023/04/26 04:58:59;;;;;;;;;;;;;;;21.88;31.36;96890.63;4936406;29;1270;-76
2023/04/26 05:01:24;;;;;;;;;;;;;;;21.87;31.04;96894.72;4939712;29;1532;-76
2023/04/26 05:03:53;;;;;;;;;;;;;;;21.79;31.38;96899.91;4936060;29;1551;-76
2023/04/26 05:06:19;;;;;;;;;;;;;;;21.81;31.36;96897.41;4921020;29;1132;-76
2023/04/26 05:08:45;;;;;;;;;;;;;;;21.90;31.31;96898.63;4923828;29;1199;-76
2023/04/26 05:11:11;;;;;;;;;;;;;;;21.96;30.99;96896.75;4956844;28;1898;-76
2023/04/26 05:13:37;;;;;;;;;;;;;;;21.79;30.94;96899.91;4943049;28;1057;-76
2023/04/26 05:16:03;;;;;;;;;;;;;;;21.81;30.87;96907.91;4942812;29;1404;-76
2023/04/26 05:18:29;;;;;;;;;;;;;;;22.00;30.51;96891.69;4942582;29;1683;-76
2023/04/26 05:20:56;;;;;;;;;;;;;;;21.74;30.51;96899.75;4958964;28;1222;-76
2023/04/26 05:23:22;;;;;;;;;;;;;;;21.62;30.62;96895.84;4942516;29;1485;-76
2023/04/26 05:25:47;;;;;;;;;;;;;;;21.94;30.88;96896.44;4959208;28;1061;-76
2023/04/26 05:28:31;;;;;;;;;;;;;;;22.47;30.83;96904.53;4944969;29;1032;-76
2023/04/26 05:31:17;;;;;;;;;;;;;;;22.14;31.44;96901.63;4945641;28;1898;-76
2023/04/26 05:33:56;;;;;;;;;;;;;;;22.43;30.84;96901.06;4944425;29;1167;-76
2023/04/26 05:36:32;;;;;;;;;;;;;;;22.01;31.15;96896.09;4944409;29;1684;-76
2023/04/26 05:38:58;;;;;;;;;;;;;;;22.06;30.78;96901.91;4942405;29;954;-76
2023/04/26 05:41:23;;;;;;;;;;;;;;;21.98;30.58;96906.34;4958789;28;1073;-76
2023/04/26 05:43:49;;;;;;;;;;;;;;;21.73;30.90;96904.63;4958401;29;965;-76
2023/04/26 05:46:15;;;;;;;;;;;;;;;21.66;30.91;96918.31;4942466;29;1281;-76
2023/04/26 05:48:41;;;;;;;;;;;;;;;21.41;30.90;96908.09;4958102;29;1282;-76
2023/04/26 05:51:06;;;;;;;;;;;;;;;21.49;30.91;96909.34;4958854;28;1914;-76
2023/04/26 05:53:32;;;;;;;;;;;;;;;21.51;30.61;96915.34;4958488;29;1062;-76
2023/04/26 05:55:58;;;;;;;;;;;;;;;22.13;30.43;96906.50;4982789;28;1234;-76
2023/04/26 05:58:24;;;;;;;;;;;;;;;22.48;29.89;96920.25;4968863;28;1233;-76
2023/04/26 06:00:50;;;;;;;;;;;;;;;22.11;30.22;96914.69;5001582;28;1144;-76
2023/04/26 06:03:17;;;;;;;;;;;;;;;22.26;29.76;96918.44;5001461;28;1199;-76
2023/04/26 06:05:43;;;;;;;;;;;;;;;22.14;29.94;96922.25;5001567;28;1115;-76
2023/04/26 06:08:08;;;;;;;;;;;;;;;21.82;29.98;96929.34;5001326;28;1051;-76
2023/04/26 06:10:34;;;;;;;;;;;;;;;21.22;30.63;96930.66;4996654;28;1902;-76
2023/04/26 06:13:00;;;;;;;;;;;;;;;21.94;29.61;96933.25;4964191;28;1266;-76
2023/04/26 06:15:28;;;;;;;;;;;;;;;21.74;29.80;96933.72;4980442;28;1245;-76
2023/04/26 06:17:54;;;;;;;;;;;;;;;21.64;29.80;96932.94;4995908;28;1076;-75
2023/04/26 06:20:19;;;;;;;;;;;;;;;21.84;30.17;96930.41;4997059;28;919;-77
2023/04/26 06:22:45;;;;;;;;;;;;;;;22.14;29.44;96941.28;4996807;28;1266;-77
2023/04/26 06:25:11;;;;;;;;;;;;;;;22.19;29.58;96937.81;4980961;28;1100;-77
2023/04/26 06:27:38;;;;;;;;;;;;;;;21.72;30.10;96930.59;4980482;28;1221;-77
2023/04/26 06:30:05;;;;;;;;;;;;;;;21.63;29.93;96931.38;4980424;28;1891;-77
2023/04/26 06:32:32;;;;;;;;;;;;;;;21.63;29.58;96930.59;4981060;28;1454;-77
2023/04/26 06:34:58;;;;;;;;;;;;;;;21.40;30.07;96940.44;4980248;28;1182;-77
2023/04/26 06:37:24;;;;;;;;;;;;;;;21.75;29.43;96936.06;4980419;28;1165;-77
2023/04/26 06:39:50;;;;;;;;;;;;;;;21.74;29.30;96931.69;4982528;28;1646;-76
2023/04/26 06:42:16;;;;;;;;;;;;;;;21.63;29.73;96931.38;5012419;28;1526;-77
2023/04/26 06:45:00;;;;;;;;;;;;;;;21.60;29.93;96932.28;5022332;28;1454;-77
2023/04/26 06:47:26;;;;;;;;;;;;;;;22.05;29.43;96933.56;5003895;28;1582;-77
2023/04/26 06:49:53;;;;;;;;;;;;;;;22.00;29.29;96942.69;5015015;28;1985;-77
2023/04/26 06:52:19;;;;;;;;;;;;;;;22.07;29.07;96939.53;4998859;28;1586;-77
2023/04/26 06:54:45;;;;;;;;;;;;;;;21.90;28.83;96939.06;5014790;28;1567;-77
2023/04/26 06:57:10;;;;;;;;;;;;;;;21.61;29.38;96939.56;4998970;28;1645;-77
2023/04/26 06:59:36;;;;;;;;;;;;;;;21.76;28.94;96945.34;4998344;28;1610;-77
2023/04/26 07:02:02;;;;;;;;;;;;;;;21.77;28.77;96942.06;4999567;28;928;-77
2023/04/26 07:04:27;;;;;;;;;;;;;;;21.49;29.17;96940.47;5016757;28;1630;-77
2023/04/26 07:06:53;;;;;;;;;;;;;;;21.96;28.85;96942.06;4990670;28;1680;-77
2023/04/26 07:09:18;;;;;;;;;;;;;;;22.16;28.90;96939.53;5006782;28;1695;-76
2023/04/26 07:11:46;;;;;;;;;;;;;;;22.18;29.11;96947.59;5026028;28;1902;-77
2023/04/26 07:14:12;;;;;;;;;;;;;;;22.30;28.83;96933.22;5015211;28;979;-77
2023/04/26 07:16:37;;;;;;;;;;;;;;;22.14;28.63;96936.41;5015187;28;1096;-77
2023/04/26 07:19:03;;;;;;;;;;;;;;;21.96;28.75;96951.34;5015499;28;956;-77
2023/04/26 07:21:28;;;;;;;;;;;;;;;21.54;29.37;96942.69;5000831;28;1386;-77
2023/04/26 07:23:57;;;;;;;;;;;;;;;21.44;29.79;96949.59;4995530;28;1022;-77
2023/04/26 07:26:23;;;;;;;;;;;;;;;21.96;29.29;96957.00;4995989;28;1200;-77
2023/04/26 07:28:51;;;;;;;;;;;;;;;22.32;28.48;96941.25;4994992;28;1002;-77
2023/04/26 07:31:17;;;;;;;;;;;;;;;22.06;28.75;96915.28;4995190;28;1914;-77
2023/04/26 07:33:42;;;;;;;;;;;;;;;21.93;29.07;96943.81;4978818;28;996;-77
2023/04/26 07:36:08;;;;;;;;;;;;;;;21.76;29.24;96951.84;4995909;28;1058;-77
2023/04/26 07:38:33;;;;;;;;;;;;;;;21.64;29.14;96944.25;4978869;28;1024;-76
2023/04/26 07:41:00;;;;;;;;;;;;;;;21.69;29.02;96940.03;4995686;28;953;-77
2023/04/26 07:43:26;;;;;;;;;;;;;;;21.66;29.25;96946.59;4995126;28;1225;-78
2023/04/26 07:45:52;;;;;;;;;;;;;;;21.52;29.48;96942.38;4995665;28;970;-76
2023/04/26 07:48:18;;;;;;;;;;;;;;;22.05;29.03;96944.88;4979016;28;1049;-76
2023/04/26 07:50:43;;;;;;;;;;;;;;;22.29;28.62;96945.06;4995383;28;1910;-76
2023/04/26 07:53:09;;;;;;;;;;;;;;;22.15;28.67;96949.31;4994972;28;1266;-76
2023/04/26 07:55:36;;;;;;;;;;;;;;;22.11;29.07;96954.34;4963065;28;1124;-77
2023/04/26 07:58:02;;;;;;;;;;;;;;;22.10;28.56;96952.75;5000793;28;923;-76
2023/04/26 08:00:27;;;;;;;;;;;;;;;22.11;28.47;96954.34;5019352;28;954;-77
2023/04/26 08:02:53;;;;;;;;;;;;;;;21.96;28.72;96953.38;4986694;28;1237;-77
2023/04/26 08:05:18;;;;;;;;;;;;;;;21.75;28.72;96950.22;5018910;28;884;-77
2023/04/26 08:07:44;;;;;;;;;;;;;;;21.66;29.18;96947.41;5002975;28;1276;-77
2023/04/26 08:10:10;;;;;;;;;;;;;;;21.76;29.22;96946.16;5018512;28;1975;-77
2023/04/26 08:12:36;;;;;;;;;;;;;;;21.57;29.38;96950.25;5019421;28;995;-77
2023/04/26 08:15:03;;;;;;;;;;;;;;;21.52;29.56;96948.81;5002754;28;1050;-77
2023/04/26 08:17:29;;;;;;;;;;;;;;;21.30;29.58;96948.94;5019172;28;971;-77
2023/04/26 08:19:54;;;;;;;;;;;;;;;21.40;29.90;96952.59;5002844;28;1195;-76
2023/04/26 08:22:20;;;;;;;;;;;;;;;22.05;28.74;96945.66;5018803;28;934;-76
2023/04/26 08:24:49;;;;;;;;;;;;;;;22.10;28.81;96941.41;5018997;28;1187;-77
2023/04/26 08:27:15;;;;;;;;;;;;;;;21.98;28.57;96945.22;5003263;28;1471;-78
2023/04/26 08:29:41;;;;;;;;;;;;;;;21.83;29.12;96942.22;5018879;28;1989;-78
2023/04/26 08:32:07;;;;;;;;;;;;;;;21.60;29.34;96937.97;5019166;28;967;-77
2023/04/26 08:34:32;;;;;;;;;;;;;;;21.56;29.14;96932.47;5002517;28;1137;-77
2023/04/26 08:36:58;;;;;;;;;;;;;;;21.63;28.74;96941.91;5002512;28;1123;-77
2023/04/26 08:39:23;;;;;;;;;;;;;;;21.88;28.61;96940.81;5018628;28;872;-77
2023/04/26 08:41:49;;;;;;;;;;;;;;;22.06;28.44;96940.78;5020467;28;932;-77
2023/04/26 08:44:15;;;;;;;;;;;;;;;22.07;28.49;96942.34;5022764;28;969;-77
2023/04/26 08:46:46;;;;;;;;;;;;;;;22.21;28.08;96936.06;5040150;28;1028;-77
2023/04/26 08:49:28;;;;;;;;;;;;;;;21.95;28.40;96946.16;5040347;28;974;-77
2023/04/26 08:51:54;;;;;;;;;;;;;;;21.74;28.75;96939.38;5022739;28;1973;-77
2023/04/26 08:54:20;;;;;;;;;;;;;;;21.54;29.10;96934.19;5022618;28;1033;-77
2023/04/26 08:56:45;;;;;;;;;;;;;;;21.46;28.93;96933.72;5023485;28;1007;-77
2023/04/26 08:59:11;;;;;;;;;;;;;;;21.64;29.10;96944.25;5022131;28;978;-77
2023/04/26 09:01:40;;;;;;;;;;;;;;;22.25;28.28;96931.03;5006287;28;1139;-76
2023/04/26 09:04:05;;;;;;;;;;;;;;;22.24;27.99;96932.31;4989549;28;1109;-76
2023/04/26 09:06:32;;;;;;;;;;;;;;;21.87;28.60;96939.25;5040056;28;930;-76
2023/04/26 09:08:57;;;;;;;;;;;;;;;21.92;28.45;96941.44;5022272;28;1026;-76
2023/04/26 09:11:23;;;;;;;;;;;;;;;21.87;28.21;96939.25;5022382;28;1985;-75
2023/04/26 09:13:48;;;;;;;;;;;;;;;21.35;29.00;96955.22;5039989;28;919;-76
2023/04/26 09:16:14;;;;;;;;;;;;;;;21.33;29.00;96948.00;5022721;28;1056;-76
2023/04/26 09:18:50;;;;;;;;;;;;;;;21.84;28.42;96947.41;5005432;28;1183;-76
2023/04/26 09:21:17;;;;;;;;;;;;;;;22.06;28.30;96946.44;5040721;28;907;-77
2023/04/26 09:23:56;;;;;;;;;;;;;;;22.22;27.78;96943.31;5021657;28;1042;-76
2023/04/26 09:26:21;;;;;;;;;;;;;;;22.05;27.90;96939.22;4989934;28;1161;-76
2023/04/26 09:28:47;;;;;;;;;;;;;;;21.82;28.04;96949.94;4981448;28;1219;-76
2023/04/26 09:31:34;;;;;;;;;;;;;;;21.69;28.26;96952.13;4981909;28;1914;-76
2023/04/26 09:34:00;;;;;;;;;;;;;;;21.69;28.36;96954.97;4981691;28;986;-76
2023/04/26 09:36:26;;;;;;;;;;;;;;;21.56;28.46;96951.50;4965479;28;1239;-76
2023/04/26 09:38:52;;;;;;;;;;;;;;;21.37;28.96;96953.50;4949548;28;1184;-76
2023/04/26 09:41:17;;;;;;;;;;;;;;;21.85;28.23;96951.81;4965816;28;974;-76
2023/04/26 09:43:42;;;;;;;;;;;;;;;22.29;27.49;96948.66;4965189;28;995;-76
2023/04/26 09:46:08;;;;;;;;;;;;;;;22.14;27.77;96950.56;4997739;28;1035;-77
2023/04/26 09:48:34;;;;;;;;;;;;;;;22.05;27.95;96950.56;4997351;28;1072;-77
2023/04/26 09:51:02;;;;;;;;;;;;;;;21.90;27.97;96943.94;4981376;28;1977;-76
2023/04/26 09:53:27;;;;;;;;;;;;;;;21.59;28.42;96942.06;4997067;28;966;-76
2023/04/26 09:55:53;;;;;;;;;;;;;;;21.78;27.99;96942.84;4981008;28;960;-77
2023/04/26 09:58:19;;;;;;;;;;;;;;;21.36;28.74;96948.31;4981076;28;1561;-77
2023/04/26 10:00:45;;;;;;;;;;;;;;;21.95;28.22;96946.16;5018073;28;988;-76
2023/04/26 10:03:10;;;;;;;;;;;;;;;21.84;28.26;96935.31;5021264;28;953;-76
2023/04/26 10:05:36;;;;;;;;;;;;;;;22.18;27.85;96942.72;5021351;28;874;-76
2023/04/26 10:08:02;;;;;;;;;;;;;;;22.19;27.55;96949.94;5020938;28;1032;-77
2023/04/26 10:10:29;;;;;;;;;;;;;;;21.98;27.65;96937.50;5021268;28;1910;-77
2023/04/26 10:12:54;;;;;;;;;;;;;;;21.92;27.71;96941.44;5020677;28;1212;-77
2023/04/26 10:15:20;;;;;;;;;;;;;;;21.66;28.41;96938.13;5000154;28;2180;-77
2023/04/26 10:17:45;;;;;;;;;;;;;;;21.53;28.59;96926.97;5018817;28;1138;-77
2023/04/26 10:20:12;;;;;;;;;;;;;;;22.10;27.62;96941.41;5001331;28;1038;-77
2023/04/26 10:23:00;;;;;;;;;;;;;;;22.35;27.46;96931.81;5001360;28;913;-77
2023/04/26 10:25:36;;;;;;;;;;;;;;;22.11;27.48;96934.50;5018143;28;864;-77
2023/04/26 10:28:02;;;;;;;;;;;;;;;21.55;28.24;96935.75;5001237;28;907;-77
2023/04/26 10:30:27;;;;;;;;;;;;;;;21.77;28.00;96932.78;5017683;28;1902;-77
2023/04/26 10:32:56;;;;;;;;;;;;;;;21.73;28.05;96935.78;5001623;28;968;-77
2023/04/26 10:35:22;;;;;;;;;;;;;;;21.49;28.40;96937.63;5015990;28;1206;-77
2023/04/26 10:38:09;;;;;;;;;;;;;;;21.35;28.74;96943.91;5000233;28;1303;-77
2023/04/26 10:40:36;;;;;;;;;;;;;;;21.98;28.11;96942.38;5000171;28;1160;-77
2023/04/26 10:43:07;;;;;;;;;;;;;;;22.26;27.68;96938.28;5015835;28;985;-77
2023/04/26 10:45:32;;;;;;;;;;;;;;;22.12;27.64;96943.81;5016200;28;1021;-77
2023/04/26 10:48:10;;;;;;;;;;;;;;;21.70;28.08;96945.19;5016028;28;1006;-76
2023/04/26 10:50:35;;;;;;;;;;;;;;;21.54;28.69;96942.69;5015964;28;1906;-77
2023/04/26 10:53:02;;;;;;;;;;;;;;;21.57;28.58;96950.25;5015917;28;926;-76
2023/04/26 10:55:37;;;;;;;;;;;;;;;21.81;27.84;96939.88;5015729;28;1311;-77
2023/04/26 10:58:07;;;;;;;;;;;;;;;21.38;28.93;96938.09;5015732;28;950;-76
2023/04/26 11:00:32;;;;;;;;;;;;;;;21.91;28.42;96945.50;5016491;28;1044;-76
2023/04/26 11:02:58;;;;;;;;;;;;;;;22.07;27.93;96942.34;4983441;28;1030;-76
2023/04/26 11:05:43;;;;;;;;;;;;;;;22.22;27.77;96937.66;5015266;28;1697;-76
2023/04/26 11:08:25;;;;;;;;;;;;;;;21.88;28.03;96940.81;5000362;28;1068;-76
2023/04/26 11:10:51;;;;;;;;;;;;;;;21.89;28.00;96936.72;5000665;28;1886;-77
2023/04/26 11:13:18;;;;;;;;;;;;;;;21.63;28.37;96945.53;4999732;28;991;-77
2023/04/26 11:15:44;;;;;;;;;;;;;;;21.63;28.49;96942.69;5000627;28;1132;-76
2023/04/26 11:18:10;;;;;;;;;;;;;;;21.40;28.84;96941.25;5000176;28;1026;-77
2023/04/26 11:20:35;;;;;;;;;;;;;;;21.36;28.97;96942.66;5018011;28;1105;-76
2023/04/26 11:23:01;;;;;;;;;;;;;;;21.61;28.42;96942.38;5017469;28;1220;-77
2023/04/26 11:25:27;;;;;;;;;;;;;;;21.55;29.03;96935.75;5000118;28;1039;-77
2023/04/26 11:28:00;;;;;;;;;;;;;;;22.02;28.28;96940.16;4999907;28;970;-77
2023/04/26 11:30:27;;;;;;;;;;;;;;;21.88;28.33;96940.81;5015123;28;1914;-76
2023/04/26 11:32:52;;;;;;;;;;;;;;;22.05;28.01;96942.06;5015255;28;1225;-76
2023/04/26 11:35:20;;;;;;;;;;;;;;;21.72;28.46;96939.88;5011913;28;1612;-77
2023/04/26 11:37:45;;;;;;;;;;;;;;;21.66;28.25;96930.44;4998422;28;1645;-75
2023/04/26 11:40:11;;;;;;;;;;;;;;;21.44;28.53;96938.25;4960633;28;1539;-76
2023/04/26 11:42:36;;;;;;;;;;;;;;;21.57;28.78;96938.91;4982297;28;1571;-77
2023/04/26 11:45:05;;;;;;;;;;;;;;;22.00;28.18;96937.81;4997733;28;1479;-77
2023/04/26 11:47:31;;;;;;;;;;;;;;;22.27;27.89;96928.50;4998651;28;1504;-77
2023/04/26 11:49:57;;;;;;;;;;;;;;;22.18;27.75;96919.25;4998032;28;1903;-76
2023/04/26 11:52:22;;;;;;;;;;;;;;;22.20;27.75;96933.72;4991755;28;1557;-76
2023/04/26 11:54:48;;;;;;;;;;;;;;;21.68;28.17;96927.91;4996162;28;1491;-76
2023/04/26 11:57:14;;;;;;;;;;;;;;;21.60;28.60;96920.97;4979063;28;1574;-77
2023/04/26 11:59:40;;;;;;;;;;;;;;;21.65;28.58;96931.66;4978833;28;999;-77
2023/04/26 12:02:08;;;;;;;;;;;;;;;21.59;28.35;96936.38;4979064;28;996;-77
2023/04/26 12:04:34;;;;;;;;;;;;;;;21.60;28.39;96932.28;4979001;28;1042;-76
2023/04/26 12:07:00;;;;;;;;;;;;;;;22.04;28.00;96932.00;4979346;28;1028;-77
2023/04/26 12:09:29;;;;;;;;;;;;;;;22.10;27.93;96936.56;5011206;28;942;-77
2023/04/26 12:12:02;;;;;;;;;;;;;;;22.17;27.90;96923.34;4962730;28;1910;-77
2023/04/26 12:14:34;;;;;;;;;;;;;;;22.01;27.86;96921.59;4994910;28;1049;-76
2023/04/26 12:17:02;;;;;;;;;;;;;;;21.76;27.99;96917.84;4998643;28;909;-76
2023/04/26 12:19:31;;;;;;;;;;;;;;;21.68;28.23;96916.59;5015302;28;1081;-77
2023/04/26 12:21:57;;;;;;;;;;;;;;;21.55;28.48;96919.59;4983146;28;1217;-76
2023/04/26 12:24:23;;;;;;;;;;;;;;;21.63;28.49;96920.03;4959600;29;1362;-76
2023/04/26 12:26:48;;;;;;;;;;;;;;;22.12;27.92;96916.25;4949267;28;1288;-77
2023/04/26 12:29:14;;;;;;;;;;;;;;;22.24;27.74;96917.34;4959494;28;1549;-77
2023/04/26 12:31:40;;;;;;;;;;;;;;;22.23;27.33;96922.25;4989081;28;1911;-76
2023/04/26 12:34:06;;;;;;;;;;;;;;;21.82;27.91;96913.13;4947330;28;1095;-76
2023/04/26 12:36:32;;;;;;;;;;;;;;;21.57;28.47;96910.59;4971592;28;1957;-77
2023/04/26 12:38:57;;;;;;;;;;;;;;;21.58;28.18;96907.31;4971818;28;1601;-76
2023/04/26 12:41:23;;;;;;;;;;;;;;;21.64;28.46;96906.66;4956545;28;1503;-76
2023/04/26 12:43:48;;;;;;;;;;;;;;;21.48;28.77;96916.25;4994885;28;2133;-76
2023/04/26 12:46:14;;;;;;;;;;;;;;;22.10;27.71;96904.59;4972527;28;1573;-77
2023/04/26 12:48:40;;;;;;;;;;;;;;;22.20;27.65;96911.06;4984271;28;1589;-77
2023/04/26 12:51:05;;;;;;;;;;;;;;;22.17;27.58;96906.31;4982065;28;1902;-77
2023/04/26 12:53:31;;;;;;;;;;;;;;;21.54;28.27;96903.84;4998742;28;1007;-77
2023/04/26 12:55:56;;;;;;;;;;;;;;;21.63;28.32;96902.28;5000763;28;923;-77
2023/04/26 12:58:22;;;;;;;;;;;;;;;21.68;28.11;96899.59;5039828;28;966;-77